sensor_id;sensor_type;location;lat;lon;timestamp;P1;durP1;ratioP1;P2;durP2;ratioP2
75548;SDS011;64133;56.002;37.208;2023-08-17T00:03:42;9.15;;;4.30;;
75548;SDS011;64133;56.002;37.208;2023-08-17T00:08:47;12.47;;;4.03;;
75548;SDS011;64133;56.002;37.208;2023-08-17T00:13:52;11.20;;;3.58;;
75548;SDS011;64133;56.002;37.208;2023-08-17T00:18:56;12.45;;;4.50;;
75548;SDS011;64133;56.002;37.208;2023-08-17T00:24:01;7.08;;;3.95;;
75548;SDS011;64133;56.002;37.208;2023-08-17T00:29:06;9.63;;;3.67;;
75548;SDS011;64133;56.002;37.208;2023-08-17T00:34:10;10.78;;;4.58;;
75548;SDS011;64133;56.002;37.208;2023-08-17T00:39:15;7.72;;;3.85;;
75548;SDS011;64133;56.002;37.208;2023-08-17T00:44:20;9.45;;;4.60;;
75548;SDS011;64133;56.002;37.208;2023-08-17T00:49:25;6.35;;;4.35;;
75548;SDS011;64133;56.002;37.208;2023-08-17T00:54:30;5.67;;;3.58;;
75548;SDS011;64133;56.002;37.208;2023-08-17T00:59:34;7.58;;;4.03;;
75548;SDS011;64133;56.002;37.208;2023-08-17T01:04:39;8.38;;;3.98;;
75548;SDS011;64133;56.002;37.208;2023-08-17T01:09:44;10.80;;;4.30;;
75548;SDS011;64133;56.002;37.208;2023-08-17T01:14:51;10.85;;;4.10;;
75548;SDS011;64133;56.002;37.208;2023-08-17T01:19:54;8.80;;;3.62;;
75548;SDS011;64133;56.002;37.208;2023-08-17T01:24:59;6.08;;;3.58;;
75548;SDS011;64133;56.002;37.208;2023-08-17T01:30:04;11.20;;;5.00;;
75548;SDS011;64133;56.002;37.208;2023-08-17T01:35:11;7.40;;;3.87;;
75548;SDS011;64133;56.002;37.208;2023-08-17T01:40:15;10.40;;;4.62;;
75548;SDS011;64133;56.002;37.208;2023-08-17T01:45:20;9.60;;;4.35;;
75548;SDS011;64133;56.002;37.208;2023-08-17T01:50:25;7.83;;;4.08;;
75548;SDS011;64133;56.002;37.208;2023-08-17T01:55:30;10.53;;;4.78;;
75548;SDS011;64133;56.002;37.208;2023-08-17T02:00:34;9.70;;;4.25;;
75548;SDS011;64133;56.002;37.208;2023-08-17T02:05:39;14.05;;;5.08;;
75548;SDS011;64133;56.002;37.208;2023-08-17T02:10:47;19.65;;;9.70;;
75548;SDS011;64133;56.002;37.208;2023-08-17T02:15:52;18.45;;;9.85;;
75548;SDS011;64133;56.002;37.208;2023-08-17T02:20:57;9.10;;;5.28;;
75548;SDS011;64133;56.002;37.208;2023-08-17T02:26:01;8.03;;;4.58;;
75548;SDS011;64133;56.002;37.208;2023-08-17T02:31:06;6.30;;;3.95;;
75548;SDS011;64133;56.002;37.208;2023-08-17T02:36:11;13.40;;;4.45;;
75548;SDS011;64133;56.002;37.208;2023-08-17T02:41:15;11.73;;;4.87;;
75548;SDS011;64133;56.002;37.208;2023-08-17T02:46:20;7.33;;;4.40;;
75548;SDS011;64133;56.002;37.208;2023-08-17T02:51:25;7.95;;;3.67;;
75548;SDS011;64133;56.002;37.208;2023-08-17T02:56:30;7.92;;;4.55;;
75548;SDS011;64133;56.002;37.208;2023-08-17T03:01:34;8.30;;;4.20;;
75548;SDS011;64133;56.002;37.208;2023-08-17T03:06:39;9.70;;;4.33;;
75548;SDS011;64133;56.002;37.208;2023-08-17T03:11:44;12.98;;;4.67;;
75548;SDS011;64133;56.002;37.208;2023-08-17T03:16:48;7.62;;;4.37;;
75548;SDS011;64133;56.002;37.208;2023-08-17T03:21:53;6.00;;;3.92;;
75548;SDS011;64133;56.002;37.208;2023-08-17T03:26:58;8.30;;;4.62;;
75548;SDS011;64133;56.002;37.208;2023-08-17T03:32:02;9.43;;;5.10;;
75548;SDS011;64133;56.002;37.208;2023-08-17T03:37:07;7.22;;;4.47;;
75548;SDS011;64133;56.002;37.208;2023-08-17T03:42:12;11.90;;;4.70;;
75548;SDS011;64133;56.002;37.208;2023-08-17T03:47:17;7.37;;;4.70;;
75548;SDS011;64133;56.002;37.208;2023-08-17T03:52:22;10.90;;;4.78;;
75548;SDS011;64133;56.002;37.208;2023-08-17T03:57:26;18.92;;;7.55;;
75548;SDS011;64133;56.002;37.208;2023-08-17T04:02:31;7.30;;;4.58;;
75548;SDS011;64133;56.002;37.208;2023-08-17T04:07:36;9.50;;;4.30;;
75548;SDS011;64133;56.002;37.208;2023-08-17T04:12:41;7.12;;;4.22;;
75548;SDS011;64133;56.002;37.208;2023-08-17T04:17:45;5.75;;;3.95;;
75548;SDS011;64133;56.002;37.208;2023-08-17T04:22:50;10.10;;;4.37;;
75548;SDS011;64133;56.002;37.208;2023-08-17T04:27:55;6.70;;;4.92;;
75548;SDS011;64133;56.002;37.208;2023-08-17T04:32:59;8.95;;;4.28;;
75548;SDS011;64133;56.002;37.208;2023-08-17T04:38:04;5.12;;;3.87;;
75548;SDS011;64133;56.002;37.208;2023-08-17T04:43:09;5.35;;;3.40;;
75548;SDS011;64133;56.002;37.208;2023-08-17T04:48:14;4.58;;;3.00;;
75548;SDS011;64133;56.002;37.208;2023-08-17T04:53:18;5.72;;;3.35;;
75548;SDS011;64133;56.002;37.208;2023-08-17T04:58:23;4.50;;;3.30;;
75548;SDS011;64133;56.002;37.208;2023-08-17T05:03:28;3.25;;;2.17;;
75548;SDS011;64133;56.002;37.208;2023-08-17T05:08:33;4.42;;;2.17;;
75548;SDS011;64133;56.002;37.208;2023-08-17T05:13:38;4.40;;;2.02;;
75548;SDS011;64133;56.002;37.208;2023-08-17T05:18:43;4.72;;;2.12;;
75548;SDS011;64133;56.002;37.208;2023-08-17T05:23:47;3.50;;;2.65;;
75548;SDS011;64133;56.002;37.208;2023-08-17T05:28:52;5.42;;;3.02;;
75548;SDS011;64133;56.002;37.208;2023-08-17T05:33:57;3.80;;;2.47;;
75548;SDS011;64133;56.002;37.208;2023-08-17T05:39:02;4.78;;;3.62;;
75548;SDS011;64133;56.002;37.208;2023-08-17T05:44:06;7.30;;;3.17;;
75548;SDS011;64133;56.002;37.208;2023-08-17T05:49:11;6.33;;;3.22;;
75548;SDS011;64133;56.002;37.208;2023-08-17T05:54:16;14.70;;;3.12;;
75548;SDS011;64133;56.002;37.208;2023-08-17T05:59:20;3.45;;;2.02;;
75548;SDS011;64133;56.002;37.208;2023-08-17T06:04:25;5.35;;;1.67;;
75548;SDS011;64133;56.002;37.208;2023-08-17T06:09:30;3.17;;;1.98;;
75548;SDS011;64133;56.002;37.208;2023-08-17T06:14:35;2.80;;;1.42;;
75548;SDS011;64133;56.002;37.208;2023-08-17T06:19:39;3.30;;;1.82;;
75548;SDS011;64133;56.002;37.208;2023-08-17T06:24:44;4.35;;;2.20;;
75548;SDS011;64133;56.002;37.208;2023-08-17T06:29:49;3.10;;;1.45;;
75548;SDS011;64133;56.002;37.208;2023-08-17T06:34:53;1.75;;;1.27;;
75548;SDS011;64133;56.002;37.208;2023-08-17T06:45:59;4.60;;;2.15;;
75548;SDS011;64133;56.002;37.208;2023-08-17T06:51:04;3.10;;;1.80;;
75548;SDS011;64133;56.002;37.208;2023-08-17T06:56:10;2.92;;;2.00;;
75548;SDS011;64133;56.002;37.208;2023-08-17T07:01:15;3.05;;;1.90;;
75548;SDS011;64133;56.002;37.208;2023-08-17T07:06:19;3.58;;;1.87;;
75548;SDS011;64133;56.002;37.208;2023-08-17T07:11:24;2.33;;;1.67;;
75548;SDS011;64133;56.002;37.208;2023-08-17T07:16:29;3.15;;;2.37;;
75548;SDS011;64133;56.002;37.208;2023-08-17T07:21:33;3.65;;;2.15;;
75548;SDS011;64133;56.002;37.208;2023-08-17T07:26:38;2.60;;;1.87;;
75548;SDS011;64133;56.002;37.208;2023-08-17T07:31:43;3.47;;;1.90;;
75548;SDS011;64133;56.002;37.208;2023-08-17T07:36:47;3.65;;;1.87;;
75548;SDS011;64133;56.002;37.208;2023-08-17T07:41:52;2.67;;;1.77;;
75548;SDS011;64133;56.002;37.208;2023-08-17T07:46:57;2.45;;;1.72;;
75548;SDS011;64133;56.002;37.208;2023-08-17T07:52:01;2.90;;;2.10;;
75548;SDS011;64133;56.002;37.208;2023-08-17T07:57:06;3.17;;;1.87;;
75548;SDS011;64133;56.002;37.208;2023-08-17T08:02:11;5.40;;;1.75;;
75548;SDS011;64133;56.002;37.208;2023-08-17T08:07:16;3.33;;;1.95;;
75548;SDS011;64133;56.002;37.208;2023-08-17T08:12:20;3.42;;;2.08;;
75548;SDS011;64133;56.002;37.208;2023-08-17T08:17:25;3.98;;;2.62;;
75548;SDS011;64133;56.002;37.208;2023-08-17T08:22:30;2.55;;;2.02;;
75548;SDS011;64133;56.002;37.208;2023-08-17T08:27:34;4.35;;;1.70;;
75548;SDS011;64133;56.002;37.208;2023-08-17T08:32:39;3.27;;;2.20;;
75548;SDS011;64133;56.002;37.208;2023-08-17T08:37:44;4.12;;;2.10;;
75548;SDS011;64133;56.002;37.208;2023-08-17T08:42:48;3.75;;;2.08;;
75548;SDS011;64133;56.002;37.208;2023-08-17T08:47:53;3.15;;;2.40;;
75548;SDS011;64133;56.002;37.208;2023-08-17T08:52:58;3.35;;;1.90;;
75548;SDS011;64133;56.002;37.208;2023-08-17T08:58:03;2.20;;;1.55;;
75548;SDS011;64133;56.002;37.208;2023-08-17T09:03:08;3.55;;;1.82;;
75548;SDS011;64133;56.002;37.208;2023-08-17T09:08:13;2.22;;;1.75;;
75548;SDS011;64133;56.002;37.208;2023-08-17T09:13:18;6.28;;;2.27;;
75548;SDS011;64133;56.002;37.208;2023-08-17T09:18:22;2.98;;;1.95;;
75548;SDS011;64133;56.002;37.208;2023-08-17T09:23:27;3.15;;;1.65;;
75548;SDS011;64133;56.002;37.208;2023-08-17T09:28:32;6.08;;;2.22;;
75548;SDS011;64133;56.002;37.208;2023-08-17T09:33:37;3.40;;;1.90;;
75548;SDS011;64133;56.002;37.208;2023-08-17T09:38:41;4.05;;;1.95;;
75548;SDS011;64133;56.002;37.208;2023-08-17T09:43:46;4.25;;;2.47;;
75548;SDS011;64133;56.002;37.208;2023-08-17T09:48:50;2.95;;;1.85;;
75548;SDS011;64133;56.002;37.208;2023-08-17T09:53:55;3.33;;;2.22;;
75548;SDS011;64133;56.002;37.208;2023-08-17T09:59:00;3.25;;;1.77;;
75548;SDS011;64133;56.002;37.208;2023-08-17T10:04:05;3.37;;;1.98;;
75548;SDS011;64133;56.002;37.208;2023-08-17T10:09:09;3.05;;;1.90;;
75548;SDS011;64133;56.002;37.208;2023-08-17T10:14:15;3.70;;;2.12;;
75548;SDS011;64133;56.002;37.208;2023-08-17T10:19:22;4.65;;;1.62;;
75548;SDS011;64133;56.002;37.208;2023-08-17T10:24:25;4.25;;;1.60;;
75548;SDS011;64133;56.002;37.208;2023-08-17T10:29:29;3.58;;;2.05;;
75548;SDS011;64133;56.002;37.208;2023-08-17T10:34:34;3.22;;;1.42;;
75548;SDS011;64133;56.002;37.208;2023-08-17T10:39:42;2.62;;;1.40;;
75548;SDS011;64133;56.002;37.208;2023-08-17T10:44:48;2.47;;;1.70;;
75548;SDS011;64133;56.002;37.208;2023-08-17T10:49:55;3.37;;;1.37;;
75548;SDS011;64133;56.002;37.208;2023-08-17T10:55:03;2.67;;;1.65;;
75548;SDS011;64133;56.002;37.208;2023-08-17T11:00:11;2.40;;;1.50;;
75548;SDS011;64133;56.002;37.208;2023-08-17T11:05:34;3.35;;;1.52;;
75548;SDS011;64133;56.002;37.208;2023-08-17T11:10:44;3.35;;;1.90;;
75548;SDS011;64133;56.002;37.208;2023-08-17T11:15:51;2.77;;;1.52;;
75548;SDS011;64133;56.002;37.208;2023-08-17T11:20:56;2.35;;;1.72;;
75548;SDS011;64133;56.002;37.208;2023-08-17T11:26:01;2.72;;;1.80;;
75548;SDS011;64133;56.002;37.208;2023-08-17T11:31:06;2.77;;;1.60;;
75548;SDS011;64133;56.002;37.208;2023-08-17T11:36:10;3.65;;;1.50;;
75548;SDS011;64133;56.002;37.208;2023-08-17T11:41:15;2.87;;;1.45;;
75548;SDS011;64133;56.002;37.208;2023-08-17T11:46:20;2.95;;;1.70;;
75548;SDS011;64133;56.002;37.208;2023-08-17T11:51:30;3.08;;;1.62;;
75548;SDS011;64133;56.002;37.208;2023-08-17T11:56:35;2.08;;;1.40;;
75548;SDS011;64133;56.002;37.208;2023-08-17T12:01:40;2.90;;;1.72;;
75548;SDS011;64133;56.002;37.208;2023-08-17T12:06:45;2.30;;;1.50;;
75548;SDS011;64133;56.002;37.208;2023-08-17T12:11:56;2.80;;;1.55;;
75548;SDS011;64133;56.002;37.208;2023-08-17T12:17:03;1.87;;;1.40;;
75548;SDS011;64133;56.002;37.208;2023-08-17T12:22:07;2.20;;;1.75;;
75548;SDS011;64133;56.002;37.208;2023-08-17T12:27:12;2.22;;;1.80;;
75548;SDS011;64133;56.002;37.208;2023-08-17T12:32:18;2.12;;;1.55;;
75548;SDS011;64133;56.002;37.208;2023-08-17T12:37:22;3.25;;;1.65;;
75548;SDS011;64133;56.002;37.208;2023-08-17T12:42:26;2.58;;;1.80;;
75548;SDS011;64133;56.002;37.208;2023-08-17T12:47:31;3.17;;;1.62;;
75548;SDS011;64133;56.002;37.208;2023-08-17T12:52:36;2.92;;;1.60;;
75548;SDS011;64133;56.002;37.208;2023-08-17T12:57:40;2.40;;;1.70;;
75548;SDS011;64133;56.002;37.208;2023-08-17T13:02:45;4.85;;;2.00;;
75548;SDS011;64133;56.002;37.208;2023-08-17T13:07:50;4.30;;;1.55;;
75548;SDS011;64133;56.002;37.208;2023-08-17T13:12:54;2.10;;;1.70;;
75548;SDS011;64133;56.002;37.208;2023-08-17T13:17:59;2.85;;;1.75;;
75548;SDS011;64133;56.002;37.208;2023-08-17T13:23:04;3.42;;;1.75;;
75548;SDS011;64133;56.002;37.208;2023-08-17T13:28:09;2.87;;;1.50;;
75548;SDS011;64133;56.002;37.208;2023-08-17T13:33:14;4.40;;;1.72;;
75548;SDS011;64133;56.002;37.208;2023-08-17T13:38:19;2.45;;;1.52;;
75548;SDS011;64133;56.002;37.208;2023-08-17T13:43:23;2.20;;;1.85;;
75548;SDS011;64133;56.002;37.208;2023-08-17T13:48:28;2.67;;;1.72;;
75548;SDS011;64133;56.002;37.208;2023-08-17T13:53:33;4.70;;;1.90;;
75548;SDS011;64133;56.002;37.208;2023-08-17T13:58:37;2.15;;;1.70;;
75548;SDS011;64133;56.002;37.208;2023-08-17T14:03:42;3.05;;;1.77;;
75548;SDS011;64133;56.002;37.208;2023-08-17T14:08:47;4.47;;;1.85;;
75548;SDS011;64133;56.002;37.208;2023-08-17T14:13:51;5.25;;;1.77;;
75548;SDS011;64133;56.002;37.208;2023-08-17T14:18:56;3.00;;;2.10;;
75548;SDS011;64133;56.002;37.208;2023-08-17T14:24:01;4.95;;;1.87;;
75548;SDS011;64133;56.002;37.208;2023-08-17T14:29:06;3.30;;;1.60;;
75548;SDS011;64133;56.002;37.208;2023-08-17T14:34:10;3.27;;;2.02;;
75548;SDS011;64133;56.002;37.208;2023-08-17T14:39:15;2.45;;;1.82;;
75548;SDS011;64133;56.002;37.208;2023-08-17T14:44:20;3.25;;;1.92;;
75548;SDS011;64133;56.002;37.208;2023-08-17T14:49:25;5.30;;;4.90;;
75548;SDS011;64133;56.002;37.208;2023-08-17T14:54:29;4.37;;;3.95;;
75548;SDS011;64133;56.002;37.208;2023-08-17T14:59:34;3.47;;;3.17;;
75548;SDS011;64133;56.002;37.208;2023-08-17T15:04:39;3.85;;;3.22;;
75548;SDS011;64133;56.002;37.208;2023-08-17T15:09:44;3.50;;;3.02;;
75548;SDS011;64133;56.002;37.208;2023-08-17T15:14:49;4.70;;;3.55;;
75548;SDS011;64133;56.002;37.208;2023-08-17T15:19:53;3.35;;;3.05;;
75548;SDS011;64133;56.002;37.208;2023-08-17T15:24:58;4.92;;;3.62;;
75548;SDS011;64133;56.002;37.208;2023-08-17T15:30:03;4.20;;;2.55;;
75548;SDS011;64133;56.002;37.208;2023-08-17T15:35:10;2.90;;;2.20;;
75548;SDS011;64133;56.002;37.208;2023-08-17T15:40:15;2.45;;;2.05;;
75548;SDS011;64133;56.002;37.208;2023-08-17T15:45:20;6.10;;;3.83;;
75548;SDS011;64133;56.002;37.208;2023-08-17T15:50:25;5.25;;;3.75;;
75548;SDS011;64133;56.002;37.208;2023-08-17T15:55:29;3.15;;;2.85;;
75548;SDS011;64133;56.002;37.208;2023-08-17T16:00:34;3.35;;;1.95;;
75548;SDS011;64133;56.002;37.208;2023-08-17T16:05:39;3.70;;;2.00;;
75548;SDS011;64133;56.002;37.208;2023-08-17T16:10:44;5.00;;;2.33;;
75548;SDS011;64133;56.002;37.208;2023-08-17T16:15:48;4.50;;;3.37;;
75548;SDS011;64133;56.002;37.208;2023-08-17T16:20:53;7.25;;;5.10;;
75548;SDS011;64133;56.002;37.208;2023-08-17T16:25:58;5.35;;;3.08;;
75548;SDS011;64133;56.002;37.208;2023-08-17T16:31:02;4.58;;;2.85;;
75548;SDS011;64133;56.002;37.208;2023-08-17T16:36:07;2.95;;;2.25;;
75548;SDS011;64133;56.002;37.208;2023-08-17T16:41:12;5.20;;;2.25;;
75548;SDS011;64133;56.002;37.208;2023-08-17T16:46:17;15.78;;;5.45;;
75548;SDS011;64133;56.002;37.208;2023-08-17T16:51:21;7.17;;;4.05;;
75548;SDS011;64133;56.002;37.208;2023-08-17T16:56:26;6.83;;;4.00;;
75548;SDS011;64133;56.002;37.208;2023-08-17T17:01:31;11.48;;;4.85;;
75548;SDS011;64133;56.002;37.208;2023-08-17T17:06:36;13.20;;;4.83;;
75548;SDS011;64133;56.002;37.208;2023-08-17T17:11:40;9.28;;;4.62;;
75548;SDS011;64133;56.002;37.208;2023-08-17T17:16:45;12.07;;;5.62;;
75548;SDS011;64133;56.002;37.208;2023-08-17T17:21:50;9.30;;;4.97;;
75548;SDS011;64133;56.002;37.208;2023-08-17T17:26:54;9.75;;;5.12;;
75548;SDS011;64133;56.002;37.208;2023-08-17T17:31:59;13.18;;;4.67;;
75548;SDS011;64133;56.002;37.208;2023-08-17T17:42:10;8.85;;;5.00;;
75548;SDS011;64133;56.002;37.208;2023-08-17T17:47:15;10.40;;;5.22;;
75548;SDS011;64133;56.002;37.208;2023-08-17T17:52:19;25.00;;;8.70;;
75548;SDS011;64133;56.002;37.208;2023-08-17T17:57:24;10.72;;;5.50;;
75548;SDS011;64133;56.002;37.208;2023-08-17T18:02:29;15.88;;;6.75;;
75548;SDS011;64133;56.002;37.208;2023-08-17T18:07:34;15.63;;;5.70;;
75548;SDS011;64133;56.002;37.208;2023-08-17T18:12:39;13.20;;;5.22;;
75548;SDS011;64133;56.002;37.208;2023-08-17T18:17:43;11.12;;;5.87;;
75548;SDS011;64133;56.002;37.208;2023-08-17T18:22:48;14.05;;;4.97;;
75548;SDS011;64133;56.002;37.208;2023-08-17T18:27:53;9.18;;;4.65;;
75548;SDS011;64133;56.002;37.208;2023-08-17T18:32:58;8.70;;;4.37;;
75548;SDS011;64133;56.002;37.208;2023-08-17T18:38:02;7.37;;;4.47;;
75548;SDS011;64133;56.002;37.208;2023-08-17T18:43:07;10.05;;;5.35;;
75548;SDS011;64133;56.002;37.208;2023-08-17T18:48:12;8.55;;;4.92;;
75548;SDS011;64133;56.002;37.208;2023-08-17T18:53:17;9.40;;;5.08;;
75548;SDS011;64133;56.002;37.208;2023-08-17T18:58:22;6.08;;;4.03;;
75548;SDS011;64133;56.002;37.208;2023-08-17T19:03:29;8.58;;;4.58;;
75548;SDS011;64133;56.002;37.208;2023-08-17T19:08:34;8.53;;;4.62;;
75548;SDS011;64133;56.002;37.208;2023-08-17T19:13:38;14.28;;;4.90;;
75548;SDS011;64133;56.002;37.208;2023-08-17T19:18:43;6.55;;;4.60;;
75548;SDS011;64133;56.002;37.208;2023-08-17T19:23:48;11.10;;;4.47;;
75548;SDS011;64133;56.002;37.208;2023-08-17T19:28:53;13.83;;;5.10;;
75548;SDS011;64133;56.002;37.208;2023-08-17T19:33:58;12.23;;;4.95;;
75548;SDS011;64133;56.002;37.208;2023-08-17T19:39:03;11.18;;;4.42;;
75548;SDS011;64133;56.002;37.208;2023-08-17T19:44:09;11.97;;;4.42;;
75548;SDS011;64133;56.002;37.208;2023-08-17T19:49:13;7.50;;;4.40;;
75548;SDS011;64133;56.002;37.208;2023-08-17T19:54:18;7.90;;;5.08;;
75548;SDS011;64133;56.002;37.208;2023-08-17T19:59:23;11.00;;;6.22;;
75548;SDS011;64133;56.002;37.208;2023-08-17T20:04:28;10.28;;;5.53;;
75548;SDS011;64133;56.002;37.208;2023-08-17T20:09:33;11.00;;;5.35;;
75548;SDS011;64133;56.002;37.208;2023-08-17T20:14:37;10.93;;;5.83;;
75548;SDS011;64133;56.002;37.208;2023-08-17T20:19:42;8.70;;;4.95;;
75548;SDS011;64133;56.002;37.208;2023-08-17T20:24:47;9.00;;;5.37;;
75548;SDS011;64133;56.002;37.208;2023-08-17T20:35:06;10.03;;;4.33;;
75548;SDS011;64133;56.002;37.208;2023-08-17T20:40:12;8.28;;;4.60;;
75548;SDS011;64133;56.002;37.208;2023-08-17T20:45:17;9.33;;;5.08;;
75548;SDS011;64133;56.002;37.208;2023-08-17T20:50:21;12.60;;;5.22;;
75548;SDS011;64133;56.002;37.208;2023-08-17T20:55:28;11.88;;;4.53;;
75548;SDS011;64133;56.002;37.208;2023-08-17T21:00:37;12.28;;;4.40;;
75548;SDS011;64133;56.002;37.208;2023-08-17T21:05:42;8.45;;;4.45;;
75548;SDS011;64133;56.002;37.208;2023-08-17T21:10:47;8.15;;;4.00;;
75548;SDS011;64133;56.002;37.208;2023-08-17T21:16:01;8.43;;;4.22;;
75548;SDS011;64133;56.002;37.208;2023-08-17T21:26:10;10.50;;;5.58;;
75548;SDS011;64133;56.002;37.208;2023-08-17T21:31:15;9.98;;;3.90;;
75548;SDS011;64133;56.002;37.208;2023-08-17T21:36:20;14.85;;;4.47;;
75548;SDS011;64133;56.002;37.208;2023-08-17T21:41:24;14.55;;;5.40;;
75548;SDS011;64133;56.002;37.208;2023-08-17T21:46:29;7.90;;;3.83;;
75548;SDS011;64133;56.002;37.208;2023-08-17T21:51:37;9.88;;;4.75;;
75548;SDS011;64133;56.002;37.208;2023-08-17T21:56:41;9.40;;;4.53;;
75548;SDS011;64133;56.002;37.208;2023-08-17T22:01:46;11.90;;;4.55;;
75548;SDS011;64133;56.002;37.208;2023-08-17T22:06:51;10.00;;;4.62;;
75548;SDS011;64133;56.002;37.208;2023-08-17T22:11:55;9.55;;;4.28;;
75548;SDS011;64133;56.002;37.208;2023-08-17T22:17:00;11.05;;;4.92;;
75548;SDS011;64133;56.002;37.208;2023-08-17T22:22:05;12.63;;;4.58;;
75548;SDS011;64133;56.002;37.208;2023-08-17T22:27:09;10.93;;;4.65;;
75548;SDS011;64133;56.002;37.208;2023-08-17T22:32:14;6.28;;;4.03;;
75548;SDS011;64133;56.002;37.208;2023-08-17T22:37:19;8.93;;;4.37;;
75548;SDS011;64133;56.002;37.208;2023-08-17T22:42:23;9.53;;;4.00;;
75548;SDS011;64133;56.002;37.208;2023-08-17T22:47:29;9.78;;;4.62;;
75548;SDS011;64133;56.002;37.208;2023-08-17T22:52:33;9.08;;;4.30;;
75548;SDS011;64133;56.002;37.208;2023-08-17T22:57:38;15.90;;;4.67;;
75548;SDS011;64133;56.002;37.208;2023-08-17T23:02:43;12.90;;;4.72;;
75548;SDS011;64133;56.002;37.208;2023-08-17T23:07:47;11.15;;;5.60;;
75548;SDS011;64133;56.002;37.208;2023-08-17T23:12:52;15.23;;;5.03;;
75548;SDS011;64133;56.002;37.208;2023-08-17T23:17:57;9.25;;;4.45;;
75548;SDS011;64133;56.002;37.208;2023-08-17T23:23:01;11.50;;;5.10;;
75548;SDS011;64133;56.002;37.208;2023-08-17T23:28:06;7.95;;;4.12;;
75548;SDS011;64133;56.002;37.208;2023-08-17T23:33:11;8.48;;;4.67;;
75548;SDS011;64133;56.002;37.208;2023-08-17T23:38:16;8.85;;;5.33;;
75548;SDS011;64133;56.002;37.208;2023-08-17T23:43:21;13.38;;;5.03;;
75548;SDS011;64133;56.002;37.208;2023-08-17T23:48:25;11.50;;;5.20;;
75548;SDS011;64133;56.002;37.208;2023-08-17T23:53:30;9.43;;;4.50;;
75548;SDS011;64133;56.002;37.208;2023-08-17T23:58:35;11.40;;;4.17;;
